Time;durP1;ratioP1;P1;durP2;ratioP2;P2;SDS_P1;SDS_P2;PMS_P1;PMS_P2;Temp;Humidity;BMP_temperature;BMP_pressure;BME280_temperature;BME280_humidity;BME280_pressure;Samples;Min_cycle;Max_cycle;Signal;HPM_P1;HPM_P2
2023/04/17 00:02:14;;;;;;;;;;;;;;;6.18;86.05;102631.72;5065792;28;19975;-73
2023/04/17 00:04:40;;;;;;;;;;;;;;;6.26;85.55;102631.56;5051450;28;19984;-72
2023/04/17 00:07:06;;;;;;;;;;;;;;;6.31;85.86;102635.50;5101128;27;19969;-75
2023/04/17 00:09:31;;;;;;;;;;;;;;;6.35;85.58;102636.72;5069662;28;19956;-73
2023/04/17 00:12:00;;;;;;;;;;;;;;;6.34;85.34;102632.44;5064710;28;20415;-73
2023/04/17 00:14:25;;;;;;;;;;;;;;;6.31;85.49;102630.16;5068015;28;19942;-73
2023/04/17 00:16:51;;;;;;;;;;;;;;;6.24;85.24;102633.59;5064727;28;19957;-75
2023/04/17 00:19:17;;;;;;;;;;;;;;;6.17;85.39;102630.09;5065569;28;19947;-75
2023/04/17 00:21:42;;;;;;;;;;;;;;;6.12;85.48;102632.50;5083777;28;19931;-75
2023/04/17 00:24:08;;;;;;;;;;;;;;;6.04;85.70;102637.97;5057675;28;19930;-73
2023/04/17 00:26:34;;;;;;;;;;;;;;;5.96;85.68;102633.59;5077964;28;19991;-74
2023/04/17 00:29:00;;;;;;;;;;;;;;;5.87;86.06;102631.22;5065659;28;20686;-74
2023/04/17 00:31:25;;;;;;;;;;;;;;;5.81;86.28;102634.66;5050662;28;20308;-73
2023/04/17 00:33:51;;;;;;;;;;;;;;;5.72;86.73;102618.84;5081880;28;19932;-73
2023/04/17 00:36:17;;;;;;;;;;;;;;;5.69;86.87;102627.22;5066079;28;20416;-74
2023/04/17 00:38:42;;;;;;;;;;;;;;;5.63;86.75;102630.63;5065916;28;19951;-74
2023/04/17 00:41:08;;;;;;;;;;;;;;;5.58;87.00;102627.72;5081133;28;19934;-72
2023/04/17 00:43:34;;;;;;;;;;;;;;;5.55;87.30;102622.75;5081733;28;19934;-72
2023/04/17 00:45:59;;;;;;;;;;;;;;;5.52;87.51;102623.16;5051235;28;20756;-73
2023/04/17 00:48:25;;;;;;;;;;;;;;;5.47;87.14;102630.88;5068188;28;19968;-73
2023/04/17 00:50:51;;;;;;;;;;;;;;;5.43;87.47;102625.13;5049221;28;20418;-72
2023/04/17 00:53:17;;;;;;;;;;;;;;;5.42;87.47;102628.78;5064502;28;19996;-74
2023/04/17 00:55:43;;;;;;;;;;;;;;;5.40;87.79;102617.50;5068113;28;19958;-73
2023/04/17 00:58:10;;;;;;;;;;;;;;;5.41;88.25;102621.00;5083171;28;20059;-74
2023/04/17 01:00:35;;;;;;;;;;;;;;;5.43;88.04;102624.31;5069902;28;19936;-75
2023/04/17 01:03:01;;;;;;;;;;;;;;;5.40;88.18;102619.34;5052748;28;19995;-74
2023/04/17 01:05:27;;;;;;;;;;;;;;;5.40;88.14;102619.34;5085245;28;20051;-74
2023/04/17 01:07:55;;;;;;;;;;;;;;;5.40;88.00;102624.66;5068872;28;20461;-77
2023/04/17 01:10:21;;;;;;;;;;;;;;;5.44;88.25;102626.75;5068386;28;19956;-74
2023/04/17 01:12:59;;;;;;;;;;;;;;;5.40;88.05;102622.00;5056670;28;19943;-74
2023/04/17 01:15:26;;;;;;;;;;;;;;;5.39;88.31;102620.38;5088305;28;19953;-72
2023/04/17 01:17:51;;;;;;;;;;;;;;;5.38;88.04;102621.38;5072205;28;19940;-73
2023/04/17 01:20:17;;;;;;;;;;;;;;;5.35;88.16;102619.09;5086032;28;19986;-74
2023/04/17 01:22:42;;;;;;;;;;;;;;;5.31;88.30;102623.97;5084489;28;19936;-73
2023/04/17 01:25:08;;;;;;;;;;;;;;;5.30;88.36;102619.66;5085167;28;20013;-74
2023/04/17 01:27:35;;;;;;;;;;;;;;;5.33;88.48;102629.09;5067073;27;19936;-73
2023/04/17 01:30:01;;;;;;;;;;;;;;;5.33;88.72;102631.75;5071658;28;19965;-73
2023/04/17 01:32:29;;;;;;;;;;;;;;;5.31;88.43;102626.63;5047905;28;19965;-75
2023/04/17 01:34:57;;;;;;;;;;;;;;;5.31;88.41;102628.47;5073151;28;19953;-71
2023/04/17 01:37:23;;;;;;;;;;;;;;;5.30;88.73;102629.47;5054533;28;20392;-73
2023/04/17 01:39:50;;;;;;;;;;;;;;;5.28;88.74;102634.94;5058689;28;19944;-74
2023/04/17 01:42:18;;;;;;;;;;;;;;;5.26;88.87;102631.66;5070514;28;19942;-73
2023/04/17 01:44:44;;;;;;;;;;;;;;;5.25;88.71;102638.00;5063464;28;20027;-72
2023/04/17 01:47:10;;;;;;;;;;;;;;;5.27;89.09;102635.16;5069859;27;19999;-73
2023/04/17 01:49:36;;;;;;;;;;;;;;;5.25;88.75;102637.19;5056050;28;19984;-74
2023/04/17 01:52:01;;;;;;;;;;;;;;;5.25;88.92;102626.56;5075026;28;19944;-76
2023/04/17 01:54:27;;;;;;;;;;;;;;;5.26;88.87;102637.00;5063126;28;19972;-76
2023/04/17 01:56:53;;;;;;;;;;;;;;;5.26;89.05;102633.50;5101476;27;19988;-77
2023/04/17 01:59:20;;;;;;;;;;;;;;;5.29;89.02;102639.28;5058939;28;19946;-74
2023/04/17 02:01:47;;;;;;;;;;;;;;;5.27;89.12;102645.78;5084922;28;20291;-76
2023/04/17 02:04:13;;;;;;;;;;;;;;;5.24;89.19;102640.84;5089581;28;20506;-73
2023/04/17 02:06:38;;;;;;;;;;;;;;;5.19;89.24;102644.88;5100686;28;19958;-74
2023/04/17 02:09:05;;;;;;;;;;;;;;;5.20;89.36;102646.53;5087878;27;19930;-73
2023/04/17 02:11:30;;;;;;;;;;;;;;;5.19;88.98;102652.84;5086214;28;19955;-72
2023/04/17 02:13:56;;;;;;;;;;;;;;;5.17;89.13;102652.22;5100489;27;19942;-74
2023/04/17 02:16:21;;;;;;;;;;;;;;;5.17;89.49;102654.06;5088946;28;19950;-72
2023/04/17 02:18:48;;;;;;;;;;;;;;;5.24;89.01;102656.78;5087853;27;20310;-73
2023/04/17 02:21:13;;;;;;;;;;;;;;;5.27;89.20;102653.75;5069655;28;19941;-72
2023/04/17 02:23:39;;;;;;;;;;;;;;;5.20;89.47;102651.84;5083344;28;19942;-73
2023/04/17 02:26:04;;;;;;;;;;;;;;;5.25;89.38;102647.81;5052401;28;20431;-75
2023/04/17 02:28:30;;;;;;;;;;;;;;;5.19;89.30;102646.72;5047767;28;20338;-74
2023/04/17 02:30:56;;;;;;;;;;;;;;;5.20;89.49;102646.53;5069611;28;19959;-74
2023/04/17 02:33:21;;;;;;;;;;;;;;;5.18;89.84;102653.03;5069802;28;19934;-73
2023/04/17 02:35:47;;;;;;;;;;;;;;;5.18;89.67;102648.56;5056845;28;19959;-74
2023/04/17 02:38:13;;;;;;;;;;;;;;;5.23;89.53;102650.66;5051758;28;19949;-74
2023/04/17 02:40:39;;;;;;;;;;;;;;;5.17;89.63;102649.56;5088408;27;20300;-74
2023/04/17 02:43:05;;;;;;;;;;;;;;;5.17;89.84;102652.22;5054264;28;20278;-73
2023/04/17 02:45:31;;;;;;;;;;;;;;;5.12;89.95;102649.28;5052717;28;19960;-73
2023/04/17 02:47:56;;;;;;;;;;;;;;;5.14;90.16;102652.59;5066163;28;19963;-74
2023/04/17 02:50:22;;;;;;;;;;;;;;;5.14;90.34;102655.25;5069581;28;19985;-74
2023/04/17 02:53:06;;;;;;;;;;;;;;;5.11;90.53;102652.97;5065164;28;19987;-74
2023/04/17 02:55:32;;;;;;;;;;;;;;;5.07;90.02;102658.81;5064285;28;19954;-76
2023/04/17 02:57:57;;;;;;;;;;;;;;;5.09;90.28;102644.38;5069299;27;19938;-74
2023/04/17 03:00:26;;;;;;;;;;;;;;;5.13;90.35;102656.25;5101930;27;20059;-73
2023/04/17 03:02:52;;;;;;;;;;;;;;;5.10;90.49;102647.84;5056239;28;19931;-75
2023/04/17 03:05:22;;;;;;;;;;;;;;;5.07;90.01;102649.03;5066828;28;20481;-73
2023/04/17 03:07:52;;;;;;;;;;;;;;;5.06;90.26;102655.34;5058778;27;20616;-75
2023/04/17 03:10:18;;;;;;;;;;;;;;;5.10;90.45;102650.50;5068819;28;19954;-74
2023/04/17 03:12:47;;;;;;;;;;;;;;;5.07;90.42;102654.34;5075141;28;20257;-74
2023/04/17 03:15:13;;;;;;;;;;;;;;;5.09;90.22;102660.31;5087200;28;19951;-73
2023/04/17 03:17:38;;;;;;;;;;;;;;;5.07;89.97;102656.16;5105033;27;20295;-73
2023/04/17 03:20:06;;;;;;;;;;;;;;;5.07;90.03;102657.00;5073134;28;19938;-74
2023/04/17 03:22:32;;;;;;;;;;;;;;;5.07;90.28;102646.38;5086015;28;20051;-73
2023/04/17 03:24:58;;;;;;;;;;;;;;;5.10;90.18;102650.50;5074019;28;20085;-73
2023/04/17 03:27:29;;;;;;;;;;;;;;;5.08;90.19;102652.50;5072400;28;19948;-76
2023/04/17 03:29:55;;;;;;;;;;;;;;;5.06;90.12;102658.00;5063527;28;20379;-74
2023/04/17 03:32:22;;;;;;;;;;;;;;;5.06;90.27;102657.19;5087668;28;20417;-74
2023/04/17 03:34:51;;;;;;;;;;;;;;;5.05;90.38;102653.72;5085820;28;19931;-75
2023/04/17 03:37:16;;;;;;;;;;;;;;;5.01;90.13;102656.91;5067927;28;20385;-74
2023/04/17 03:39:43;;;;;;;;;;;;;;;4.99;90.28;102649.13;5081402;28;19941;-73
2023/04/17 03:42:13;;;;;;;;;;;;;;;4.99;90.25;102650.97;5073446;28;19942;-74
2023/04/17 03:44:38;;;;;;;;;;;;;;;4.97;90.18;102651.16;5084369;28;19935;-73
2023/04/17 03:47:04;;;;;;;;;;;;;;;4.96;90.29;102646.88;5065450;28;19933;-75
2023/04/17 03:49:29;;;;;;;;;;;;;;;4.95;90.51;102650.53;5103101;28;19934;-74
2023/04/17 03:51:56;;;;;;;;;;;;;;;4.94;90.28;102656.81;5087070;28;19983;-72
2023/04/17 03:54:22;;;;;;;;;;;;;;;4.93;90.57;102650.69;5054207;28;19939;-72
2023/04/17 03:56:49;;;;;;;;;;;;;;;4.91;90.81;102662.53;5084921;28;20004;-73
2023/04/17 03:59:16;;;;;;;;;;;;;;;4.89;90.85;102656.59;5072833;28;19967;-74
2023/04/17 04:01:45;;;;;;;;;;;;;;;4.88;90.90;102661.06;5067061;28;19940;-73
2023/04/17 04:04:15;;;;;;;;;;;;;;;4.94;91.25;102667.44;5069780;28;19935;-74
2023/04/17 04:06:42;;;;;;;;;;;;;;;4.98;90.92;102671.41;5054294;28;19956;-73
2023/04/17 04:09:11;;;;;;;;;;;;;;;5.01;90.98;102683.47;5072323;28;19980;-76
2023/04/17 04:11:37;;;;;;;;;;;;;;;5.08;91.03;102676.41;5082762;28;20006;-76
2023/04/17 04:14:02;;;;;;;;;;;;;;;5.13;90.78;102679.34;5049487;28;19930;-76
2023/04/17 04:16:28;;;;;;;;;;;;;;;5.09;90.75;102694.00;5084914;28;20432;-74
2023/04/17 04:19:03;;;;;;;;;;;;;;;5.15;91.24;102685.31;5071697;28;19933;-73
2023/04/17 04:21:29;;;;;;;;;;;;;;;5.12;90.56;102689.13;5095894;28;19936;-74
2023/04/17 04:23:55;;;;;;;;;;;;;;;5.14;90.80;102694.25;5054425;28;19997;-74
2023/04/17 04:26:20;;;;;;;;;;;;;;;5.19;91.29;102692.69;5095337;28;20420;-74
2023/04/17 04:28:52;;;;;;;;;;;;;;;5.23;90.98;102698.47;5086382;28;20395;-72
2023/04/17 04:31:31;;;;;;;;;;;;;;;5.43;91.05;102694.22;5067710;28;19956;-74
2023/04/17 04:34:08;;;;;;;;;;;;;;;5.35;91.38;102689.00;5104715;27;19937;-74
2023/04/17 04:36:40;;;;;;;;;;;;;;;5.32;91.31;102696.53;5073447;28;20337;-72
2023/04/17 04:39:19;;;;;;;;;;;;;;;5.34;91.24;102699.81;5087824;28;20017;-73
2023/04/17 04:41:49;;;;;;;;;;;;;;;5.33;91.04;102706.13;5093103;28;20462;-72
2023/04/17 04:44:19;;;;;;;;;;;;;;;5.33;91.38;102698.16;5084943;28;19944;-74
2023/04/17 04:46:46;;;;;;;;;;;;;;;5.28;91.43;102704.03;5087331;28;19993;-76
2023/04/17 04:49:11;;;;;;;;;;;;;;;5.29;91.51;102704.88;5088270;28;19972;-73
2023/04/17 04:51:40;;;;;;;;;;;;;;;5.31;91.51;102705.50;5085644;28;20003;-74
2023/04/17 04:54:08;;;;;;;;;;;;;;;5.30;91.95;102695.91;5088045;28;20024;-74
2023/04/17 04:56:43;;;;;;;;;;;;;;;5.33;91.81;102698.16;5098309;28;19944;-73
2023/04/17 04:59:10;;;;;;;;;;;;;;;5.46;91.83;102698.31;5053409;28;20562;-74
2023/04/17 05:01:36;;;;;;;;;;;;;;;5.60;91.66;102708.06;5054543;28;20026;-71
2023/04/17 05:04:01;;;;;;;;;;;;;;;5.61;91.30;102708.91;5071343;28;20676;-71
2023/04/17 05:06:28;;;;;;;;;;;;;;;5.62;91.51;102707.88;5081209;28;19958;-75
2023/04/17 05:08:59;;;;;;;;;;;;;;;5.62;91.36;102716.72;5056710;28;19929;-73
2023/04/17 05:11:25;;;;;;;;;;;;;;;5.66;91.25;102715.31;5070042;28;19952;-75
2023/04/17 05:13:51;;;;;;;;;;;;;;;5.73;91.04;102715.38;5108678;27;20382;-74
2023/04/17 05:16:22;;;;;;;;;;;;;;;5.81;91.25;102727.72;5081421;28;19984;-73
2023/04/17 05:18:48;;;;;;;;;;;;;;;5.88;91.40;102725.94;5104775;28;20017;-74
2023/04/17 05:21:17;;;;;;;;;;;;;;;5.90;91.01;102723.94;5086169;28;19954;-74
2023/04/17 05:23:45;;;;;;;;;;;;;;;5.95;90.94;102721.53;5084162;28;19940;-75
2023/04/17 05:26:10;;;;;;;;;;;;;;;5.99;90.67;102720.97;5089601;27;20074;-74
2023/04/17 05:28:36;;;;;;;;;;;;;;;6.12;90.03;102725.59;5104578;27;20023;-72
2023/04/17 05:31:04;;;;;;;;;;;;;;;6.18;90.48;102735.47;5074923;28;20449;-72
2023/04/17 05:33:35;;;;;;;;;;;;;;;6.26;89.74;102731.84;5071750;28;20037;-74
2023/04/17 05:36:01;;;;;;;;;;;;;;;6.34;89.91;102730.88;5084594;28;20024;-73
2023/04/17 05:38:29;;;;;;;;;;;;;;;6.40;90.34;102732.78;5071150;28;19933;-74
2023/04/17 05:40:55;;;;;;;;;;;;;;;6.46;90.05;102740.81;5070867;28;19930;-75
2023/04/17 05:43:23;;;;;;;;;;;;;;;6.54;89.82;102734.53;5100769;27;19934;-72
2023/04/17 05:45:50;;;;;;;;;;;;;;;6.56;89.42;102738.63;5075122;28;19951;-75
2023/04/17 05:48:16;;;;;;;;;;;;;;;6.66;88.74;102742.81;5084457;28;20028;-73
2023/04/17 05:50:42;;;;;;;;;;;;;;;6.76;88.54;102738.75;5073334;28;19959;-74
2023/04/17 05:53:07;;;;;;;;;;;;;;;6.89;88.38;102743.34;5074610;27;20024;-74
2023/04/17 05:55:38;;;;;;;;;;;;;;;7.05;88.29;102752.88;5103407;28;19946;-74
2023/04/17 05:58:07;;;;;;;;;;;;;;;7.18;87.97;102749.44;5070490;28;19942;-73
2023/04/17 06:00:33;;;;;;;;;;;;;;;7.32;87.92;102749.31;5069351;28;19933;-73
2023/04/17 06:03:04;;;;;;;;;;;;;;;7.41;86.84;102743.81;5086008;28;19964;-73
2023/04/17 06:05:34;;;;;;;;;;;;;;;7.63;86.75;102751.47;5071539;28;19957;-74
2023/04/17 06:08:00;;;;;;;;;;;;;;;7.64;85.35;102747.78;5087178;28;19932;-76
2023/04/17 06:10:26;;;;;;;;;;;;;;;7.83;85.93;102756.84;5068342;28;19957;-73
2023/04/17 06:12:52;;;;;;;;;;;;;;;7.98;85.55;102747.84;5085423;28;19936;-75
2023/04/17 06:15:18;;;;;;;;;;;;;;;8.06;84.27;102750.31;5087328;28;19964;-72
2023/04/17 06:17:44;;;;;;;;;;;;;;;8.23;84.56;102746.25;5103236;27;20266;-74
2023/04/17 06:20:10;;;;;;;;;;;;;;;8.40;84.08;102752.00;5087071;28;20296;-75
2023/04/17 06:22:39;;;;;;;;;;;;;;;8.37;82.16;102753.25;5079598;27;19934;-73
2023/04/17 06:25:08;;;;;;;;;;;;;;;8.50;82.91;102746.28;5055027;28;19978;-72
2023/04/17 06:27:34;;;;;;;;;;;;;;;8.57;82.49;102749.75;5097509;27;19930;-75
2023/04/17 06:30:00;;;;;;;;;;;;;;;8.79;81.62;102751.16;5089211;28;19957;-74
2023/04/17 06:32:26;;;;;;;;;;;;;;;8.88;81.52;102749.91;5084603;28;19973;-75
2023/04/17 06:34:52;;;;;;;;;;;;;;;8.98;80.97;102749.47;5053509;28;19982;-74
2023/04/17 06:37:21;;;;;;;;;;;;;;;9.02;79.76;102764.88;5084823;28;20304;-74
2023/04/17 06:39:47;;;;;;;;;;;;;;;9.31;79.80;102762.72;5066428;28;20430;-75
2023/04/17 06:42:15;;;;;;;;;;;;;;;9.42;78.38;102764.75;5083694;28;19932;-74
2023/04/17 06:44:41;;;;;;;;;;;;;;;9.87;77.82;102764.69;5073196;28;19932;-73
2023/04/17 06:47:11;;;;;;;;;;;;;;;9.83;77.57;102768.88;5101275;28;19932;-74
2023/04/17 06:49:37;;;;;;;;;;;;;;;9.86;76.72;102763.06;5099784;27;19943;-73
2023/04/17 06:52:05;;;;;;;;;;;;;;;10.19;76.49;102764.69;5068048;28;19937;-76
2023/04/17 06:54:30;;;;;;;;;;;;;;;10.13;75.80;102772.56;5082642;28;19952;-73
2023/04/17 06:56:56;;;;;;;;;;;;;;;10.52;74.43;102773.31;5105933;28;19963;-72
2023/04/17 06:59:21;;;;;;;;;;;;;;;10.32;75.72;102776.16;5101770;28;20022;-72
2023/04/17 07:01:47;;;;;;;;;;;;;;;10.43;74.65;102769.28;5103334;28;19936;-74
2023/04/17 07:04:12;;;;;;;;;;;;;;;10.01;76.06;102776.16;5073592;28;19982;-73
2023/04/17 07:06:38;;;;;;;;;;;;;;;10.43;75.48;102780.00;5097569;28;20370;-75
2023/04/17 07:09:04;;;;;;;;;;;;;;;10.38;74.45;102782.50;5082795;28;19933;-74
2023/04/17 07:11:32;;;;;;;;;;;;;;;10.45;73.78;102777.91;5087572;28;20541;-75
2023/04/17 07:13:58;;;;;;;;;;;;;;;10.44;73.46;102776.28;5070226;28;20419;-73
2023/04/17 07:16:23;;;;;;;;;;;;;;;10.50;72.89;102772.72;5100337;28;19949;-77
2023/04/17 07:18:49;;;;;;;;;;;;;;;10.60;72.44;102774.91;5099912;28;20391;-74
2023/04/17 07:21:15;;;;;;;;;;;;;;;10.41;73.03;102782.06;5098893;28;20648;-73
2023/04/17 07:23:40;;;;;;;;;;;;;;;10.61;71.85;102782.72;5090302;28;20022;-74
2023/04/17 07:26:06;;;;;;;;;;;;;;;10.64;70.79;102782.28;5069771;28;20051;-74
2023/04/17 07:28:33;;;;;;;;;;;;;;;10.62;70.66;102784.34;5072807;28;19942;-72
2023/04/17 07:31:03;;;;;;;;;;;;;;;10.93;70.19;102791.47;5078464;28;20026;-74
2023/04/17 07:33:28;;;;;;;;;;;;;;;10.83;69.72;102795.69;5085124;27;20529;-74
2023/04/17 07:35:54;;;;;;;;;;;;;;;11.05;68.70;102796.94;5061550;28;19951;-75
2023/04/17 07:38:20;;;;;;;;;;;;;;;11.11;68.40;102804.09;5087108;28;20310;-75
2023/04/17 07:40:45;;;;;;;;;;;;;;;11.27;67.69;102796.50;5104156;28;19956;-75
2023/04/17 07:43:11;;;;;;;;;;;;;;;11.15;67.06;102801.78;5048834;28;19941;-72
2023/04/17 07:45:36;;;;;;;;;;;;;;;11.45;65.57;102804.53;5085013;28;19951;-74
2023/04/17 07:48:03;;;;;;;;;;;;;;;11.44;66.94;102803.69;5065524;28;19955;-74
2023/04/17 07:50:31;;;;;;;;;;;;;;;11.60;64.45;102801.47;5085654;28;19954;-75
2023/04/17 07:52:56;;;;;;;;;;;;;;;11.79;64.02;102800.38;5104320;27;19935;-75
2023/04/17 07:55:22;;;;;;;;;;;;;;;11.60;65.59;102798.78;5052906;27;19963;-75
2023/04/17 07:57:50;;;;;;;;;;;;;;;11.83;64.05;102806.13;5104924;27;20053;-76
2023/04/17 08:00:16;;;;;;;;;;;;;;;11.92;63.54;102800.22;5092205;28;19980;-74
2023/04/17 08:02:42;;;;;;;;;;;;;;;12.08;63.17;102798.75;5064284;27;20017;-74
2023/04/17 08:05:08;;;;;;;;;;;;;;;12.05;63.71;102798.38;5081231;28;19977;-74
2023/04/17 08:07:34;;;;;;;;;;;;;;;12.27;63.26;102799.50;5106282;28;19973;-75
2023/04/17 08:09:59;;;;;;;;;;;;;;;12.33;62.80;102800.44;5105687;28;19977;-74
2023/04/17 08:12:25;;;;;;;;;;;;;;;11.92;62.58;102799.38;5084432;28;19932;-73
2023/04/17 08:14:51;;;;;;;;;;;;;;;12.07;64.06;102802.50;5085128;28;19970;-74
2023/04/17 08:17:21;;;;;;;;;;;;;;;11.86;64.26;102800.31;5098720;28;20520;-76
2023/04/17 08:19:49;;;;;;;;;;;;;;;12.56;62.52;102790.53;5067601;28;19991;-76
2023/04/17 08:22:15;;;;;;;;;;;;;;;12.67;61.75;102791.59;5069811;28;20480;-74
2023/04/17 08:24:41;;;;;;;;;;;;;;;12.28;62.59;102803.81;5099468;28;19980;-73
2023/04/17 08:27:07;;;;;;;;;;;;;;;12.14;60.99;102803.22;5084270;28;20321;-76
2023/04/17 08:29:32;;;;;;;;;;;;;;;12.29;61.64;102806.28;5075244;28;19978;-74
2023/04/17 08:31:57;;;;;;;;;;;;;;;12.79;59.94;102794.28;5074369;28;20369;-76
2023/04/17 08:34:23;;;;;;;;;;;;;;;13.10;59.38;102790.41;5061605;28;20625;-74
2023/04/17 08:36:49;;;;;;;;;;;;;;;13.04;59.22;102799.41;5088181;28;19951;-74
2023/04/17 08:39:15;;;;;;;;;;;;;;;13.11;59.31;102794.72;5067659;28;19937;-74
2023/04/17 08:41:56;;;;;;;;;;;;;;;13.11;58.99;102797.41;5087895;28;19958;-73
2023/04/17 08:44:21;;;;;;;;;;;;;;;12.93;60.00;102790.28;5062253;28;20996;-75
2023/04/17 08:46:48;;;;;;;;;;;;;;;13.23;58.34;102798.25;5071607;28;20037;-73
2023/04/17 08:49:14;;;;;;;;;;;;;;;13.53;56.36;102794.53;5101213;28;19930;-74
2023/04/17 08:51:42;;;;;;;;;;;;;;;13.41;58.34;102788.34;5048903;28;19963;-74
2023/04/17 08:54:08;;;;;;;;;;;;;;;13.34;55.37;102792.03;5081212;28;19967;-74
2023/04/17 08:56:33;;;;;;;;;;;;;;;13.15;57.65;102787.81;5105134;28;20356;-73
2023/04/17 08:58:59;;;;;;;;;;;;;;;13.30;55.87;102796.25;5102100;28;20395;-73
2023/04/17 09:01:25;;;;;;;;;;;;;;;13.53;56.97;102802.59;5085084;28;19935;-76
2023/04/17 09:03:50;;;;;;;;;;;;;;;13.45;54.83;102802.97;5086788;28;20034;-73
2023/04/17 09:06:16;;;;;;;;;;;;;;;13.71;52.14;102797.03;5083474;28;19955;-74
2023/04/17 09:08:59;;;;;;;;;;;;;;;13.45;52.83;102792.22;5087184;28;19938;-74
2023/04/17 09:11:25;;;;;;;;;;;;;;;13.45;52.57;102797.59;5068547;28;20635;-74
2023/04/17 09:13:51;;;;;;;;;;;;;;;13.94;51.32;102791.53;5069413;28;19943;-73
2023/04/17 09:16:19;;;;;;;;;;;;;;;13.59;51.91;102798.94;5068993;28;20413;-74
2023/04/17 09:18:46;;;;;;;;;;;;;;;13.70;51.06;102795.41;5057691;27;20017;-75
2023/04/17 09:21:13;;;;;;;;;;;;;;;13.56;51.59;102799.44;5087622;28;20449;-76
2023/04/17 09:24:06;;;;;;;;;;;;;;;13.89;50.84;102804.94;5087999;27;20019;-75
2023/04/17 09:26:32;;;;;;;;;;;;;;;14.11;49.40;102793.44;5103721;28;20001;-74
2023/04/17 09:29:00;;;;;;;;;;;;;;;13.91;50.29;102805.50;5071588;28;19938;-75
2023/04/17 09:31:27;;;;;;;;;;;;;;;14.01;50.77;102795.97;5090791;27;20427;-73
2023/04/17 09:34:00;;;;;;;;;;;;;;;14.21;48.70;102797.13;5074771;28;20052;-73
2023/04/17 09:36:27;;;;;;;;;;;;;;;14.20;49.53;102800.06;5047379;28;19953;-72
2023/04/17 09:38:53;;;;;;;;;;;;;;;14.66;51.27;102803.53;5065069;28;19962;-74
2023/04/17 09:41:28;;;;;;;;;;;;;;;14.43;49.62;102794.53;5106362;27;19980;-75
2023/04/17 09:43:54;;;;;;;;;;;;;;;14.38;51.33;102802.53;5065362;28;19937;-74
2023/04/17 09:46:36;;;;;;;;;;;;;;;14.41;50.44;102801.22;5102153;28;19955;-72
2023/04/17 09:49:17;;;;;;;;;;;;;;;14.21;50.13;102797.13;5110036;27;19938;-74
2023/04/17 09:51:43;;;;;;;;;;;;;;;14.33;52.12;102799.75;5086815;28;20008;-74
2023/04/17 09:54:10;;;;;;;;;;;;;;;14.38;50.44;102802.53;5098711;28;20398;-72
2023/04/17 09:56:36;;;;;;;;;;;;;;;14.29;51.17;102803.97;5073757;28;19950;-74
2023/04/17 09:59:03;;;;;;;;;;;;;;;14.75;48.90;102807.44;5052808;28;19983;-75
2023/04/17 10:01:31;;;;;;;;;;;;;;;14.90;48.75;102798.75;5100607;27;19939;-74
2023/04/17 10:03:57;;;;;;;;;;;;;;;15.12;47.80;102801.50;5068314;28;19932;-76
2023/04/17 10:06:23;;;;;;;;;;;;;;;15.11;49.59;102800.69;5086752;28;19950;-74
2023/04/17 10:08:48;;;;;;;;;;;;;;;15.33;49.59;102808.78;5072772;28;19980;-74
2023/04/17 10:11:14;;;;;;;;;;;;;;;15.74;47.67;102810.09;5065822;28;19959;-75
2023/04/17 10:13:41;;;;;;;;;;;;;;;15.54;49.54;102805.25;5086032;28;20625;-73
2023/04/17 10:16:07;;;;;;;;;;;;;;;15.60;49.79;102814.22;5086755;28;19952;-74
2023/04/17 10:18:32;;;;;;;;;;;;;;;15.60;50.04;102803.41;5058049;27;19937;-74
2023/04/17 10:21:17;;;;;;;;;;;;;;;15.09;50.53;102808.19;5066581;28;19931;-74
2023/04/17 10:23:43;;;;;;;;;;;;;;;15.17;50.91;102815.88;5102047;27;19956;-75
2023/04/17 10:26:24;;;;;;;;;;;;;;;14.75;50.01;102820.91;5082637;28;19950;-72
2023/04/17 10:28:53;;;;;;;;;;;;;;;14.40;50.13;102802.28;5087796;28;19980;-74
2023/04/17 10:31:19;;;;;;;;;;;;;;;14.77;49.61;102810.72;5082577;28;19950;-76
2023/04/17 10:33:48;;;;;;;;;;;;;;;14.75;49.98;102810.13;5098848;28;20006;-74
2023/04/17 10:36:33;;;;;;;;;;;;;;;14.75;51.01;102816.34;5091785;28;20011;-73
2023/04/17 10:39:10;;;;;;;;;;;;;;;15.73;50.14;102810.34;5071089;28;19930;-74
2023/04/17 10:41:56;;;;;;;;;;;;;;;15.54;45.77;102807.94;5068137;28;20386;-72
2023/04/17 10:44:23;;;;;;;;;;;;;;;14.64;48.13;102816.47;5054386;28;19987;-75
2023/04/17 10:46:48;;;;;;;;;;;;;;;14.69;49.44;102814.63;5083923;28;19949;-73
2023/04/17 10:49:15;;;;;;;;;;;;;;;14.45;49.85;102819.38;5057252;28;19942;-73
2023/04/17 10:51:41;;;;;;;;;;;;;;;14.55;50.17;102813.34;5084071;28;19945;-73
2023/04/17 10:54:09;;;;;;;;;;;;;;;14.33;50.54;102810.53;5078461;28;19932;-72
2023/04/17 10:56:37;;;;;;;;;;;;;;;14.23;51.55;102815.75;5070641;28;20051;-73
2023/04/17 10:59:04;;;;;;;;;;;;;;;14.30;51.47;102824.50;5071980;28;19974;-74
2023/04/17 11:01:35;;;;;;;;;;;;;;;14.22;49.13;102822.19;5069970;28;20005;-74
2023/04/17 11:04:05;;;;;;;;;;;;;;;14.09;50.48;102827.88;5082176;28;19982;-75
2023/04/17 11:06:31;;;;;;;;;;;;;;;13.94;50.88;102825.72;5097213;28;20152;-74
2023/04/17 11:08:58;;;;;;;;;;;;;;;13.81;51.51;102817.94;5087567;28;20335;-74
2023/04/17 11:11:24;;;;;;;;;;;;;;;13.98;51.90;102818.81;5087829;28;20158;-77
2023/04/17 11:13:50;;;;;;;;;;;;;;;14.87;49.06;102818.94;5084939;27;20163;-74
2023/04/17 11:16:16;;;;;;;;;;;;;;;14.51;49.08;102816.78;5065519;28;19949;-76
2023/04/17 11:18:42;;;;;;;;;;;;;;;14.22;48.01;102816.78;5091706;28;20397;-75
2023/04/17 11:21:12;;;;;;;;;;;;;;;14.81;47.64;102819.94;5077045;28;19934;-76
2023/04/17 11:23:38;;;;;;;;;;;;;;;14.93;45.66;102817.97;5077428;28;20414;-76
2023/04/17 11:26:13;;;;;;;;;;;;;;;15.39;41.42;102807.78;5069194;28;19982;-75
2023/04/17 11:28:39;;;;;;;;;;;;;;;15.39;40.88;102818.56;5100580;28;20234;-75
2023/04/17 11:31:07;;;;;;;;;;;;;;;16.04;38.19;102814.97;5081662;27;21298;-76
2023/04/17 11:33:36;;;;;;;;;;;;;;;16.03;38.23;102824.16;5060646;28;19932;-75
2023/04/17 11:36:03;;;;;;;;;;;;;;;15.26;38.19;102822.47;5078176;28;20323;-73
2023/04/17 11:38:28;;;;;;;;;;;;;;;14.73;38.31;102829.25;5069583;28;20352;-75
2023/04/17 11:40:54;;;;;;;;;;;;;;;15.02;38.94;102831.84;5083197;28;19934;-75
2023/04/17 11:43:21;;;;;;;;;;;;;;;15.14;38.08;102820.94;5046201;27;20042;-76
2023/04/17 11:45:49;;;;;;;;;;;;;;;14.97;37.37;102823.66;5083625;28;21340;-74
2023/04/17 11:48:15;;;;;;;;;;;;;;;15.14;37.17;102820.94;5087015;28;19938;-77
2023/04/17 11:50:42;;;;;;;;;;;;;;;14.82;35.50;102820.75;5070781;28;19942;-75
2023/04/17 11:53:07;;;;;;;;;;;;;;;15.51;34.68;102821.97;5065662;28;19929;-73
2023/04/17 11:55:34;;;;;;;;;;;;;;;15.30;34.74;102836.25;5065246;28;19955;-74
2023/04/17 11:58:05;;;;;;;;;;;;;;;15.57;35.57;102841.72;5102140;28;19939;-76
2023/04/17 12:00:31;;;;;;;;;;;;;;;15.75;36.03;102836.03;5086197;28;19937;-75
2023/04/17 12:02:57;;;;;;;;;;;;;;;15.70;36.04;102835.16;5069562;28;19937;-76
2023/04/17 12:05:23;;;;;;;;;;;;;;;15.65;36.91;102840.53;5069811;28;20747;-75
2023/04/17 12:08:03;;;;;;;;;;;;;;;15.94;38.64;102836.50;5071611;28;19940;-73
2023/04/17 12:10:54;;;;;;;;;;;;;;;15.67;36.39;102832.97;5101514;27;20025;-75
2023/04/17 12:13:20;;;;;;;;;;;;;;;16.03;37.50;102845.78;5082344;28;20345;-75
2023/04/17 12:15:46;;;;;;;;;;;;;;;16.25;36.03;102847.59;5066841;28;19952;-75
2023/04/17 12:18:12;;;;;;;;;;;;;;;16.24;37.51;102846.78;5085267;28;20328;-75
2023/04/17 12:20:38;;;;;;;;;;;;;;;16.61;37.08;102864.97;5103319;28;19941;-73
2023/04/17 12:23:04;;;;;;;;;;;;;;;15.44;37.13;102858.28;5065414;28;19937;-73
2023/04/17 12:25:29;;;;;;;;;;;;;;;15.44;36.15;102848.31;5085506;28;19946;-74
2023/04/17 12:27:57;;;;;;;;;;;;;;;14.89;37.27;102851.88;5107376;28;19935;-75
2023/04/17 12:30:25;;;;;;;;;;;;;;;15.70;37.90;102854.06;5097710;28;20315;-73
2023/04/17 12:32:51;;;;;;;;;;;;;;;15.52;37.41;102842.50;5070487;28;20500;-74
2023/04/17 12:35:20;;;;;;;;;;;;;;;15.13;38.30;102855.22;5054119;28;19991;-75
2023/04/17 12:37:50;;;;;;;;;;;;;;;15.67;38.67;102858.09;5102772;28;20419;-76
2023/04/17 12:40:18;;;;;;;;;;;;;;;15.93;38.00;102851.09;5066372;28;20451;-75
2023/04/17 12:42:44;;;;;;;;;;;;;;;16.24;36.71;102862.19;5084819;28;19936;-73
2023/04/17 12:45:12;;;;;;;;;;;;;;;15.82;37.25;102850.16;5055683;28;19957;-74